Terminal Aerodrome Forecast
Issued by NWS

Home | Current Version | Previous Version | Text Only | Print | Product List | Glossary On
Versions: 1 2 3 4 5 6 7 8 9 10 11 12 13 14 15
636
FTUS41 KPHI 080520
TAFPNE
TAF
KPNE 080520Z 0806/0906 03011KT P6SM OVC150
     FM081200 03012G20KT P6SM BKN020 OVC150
     FM081600 04011KT P6SM SCT020 OVC150
     FM090000 07008KT P6SM OVC015
     FM090500 07006KT 4SM -SN OVC009=

USA.gov is the U.S. government's official web portal to all federal, state and local government web resources and services.